createdAt,value
2023-05-17T00:00:51.170Z,1.90
2023-05-17T00:03:39.304Z,1.90
2023-05-17T00:06:27.118Z,1.27
2023-05-17T00:09:14.910Z,1.93
2023-05-17T00:12:03.866Z,1.90
2023-05-17T00:14:51.332Z,1.63
2023-05-17T00:17:38.874Z,1.70
2023-05-17T00:20:26.742Z,1.50
2023-05-17T00:23:14.255Z,2.20
2023-05-17T00:26:01.658Z,2.17
2023-05-17T00:28:50.377Z,1.67
2023-05-17T00:31:38.165Z,1.80
2023-05-17T00:34:25.621Z,1.73
2023-05-17T00:37:13.004Z,2.03
2023-05-17T00:40:00.454Z,1.80
2023-05-17T00:42:47.995Z,2.10
2023-05-17T00:45:37.166Z,2.43
2023-05-17T00:48:26.433Z,2.27
2023-05-17T00:51:15.122Z,2.40
2023-05-17T00:54:02.796Z,2.30
2023-05-17T00:56:50.832Z,2.20
2023-05-17T00:59:38.267Z,2.50
2023-05-17T01:02:27.310Z,1.83
2023-05-17T01:05:15.025Z,2.73
2023-05-17T01:08:02.456Z,2.90
2023-05-17T01:10:53.765Z,2.53
2023-05-17T01:13:44.133Z,2.60
2023-05-17T01:16:33.178Z,2.23
2023-05-17T01:19:31.757Z,2.17
2023-05-17T01:22:24.141Z,2.70
2023-05-17T01:25:23.318Z,2.33
2023-05-17T01:28:12.740Z,2.43
2023-05-17T01:31:01.048Z,2.70
2023-05-17T01:33:48.626Z,2.97
2023-05-17T01:36:36.141Z,3.03
2023-05-17T01:39:23.998Z,2.53
2023-05-17T01:42:20.363Z,2.57
2023-05-17T01:45:11.826Z,2.50
2023-05-17T01:48:05.807Z,2.63
2023-05-17T01:50:54.499Z,2.60
2023-05-17T01:53:44.680Z,3.03
2023-05-17T01:56:35.370Z,2.50
2023-05-17T01:59:25.313Z,2.90
2023-05-17T02:02:14.281Z,2.70
2023-05-17T02:05:01.594Z,2.63
2023-05-17T02:07:48.929Z,2.90
2023-05-17T02:10:38.370Z,2.80
2023-05-17T02:13:25.873Z,3.17
2023-05-17T02:16:13.211Z,2.70
2023-05-17T02:19:02.453Z,2.83
2023-05-17T02:21:49.970Z,2.63
2023-05-17T02:24:37.504Z,2.67
2023-05-17T02:27:25.924Z,2.53
2023-05-17T02:30:18.163Z,2.53
2023-05-17T02:33:06.012Z,3.17
2023-05-17T02:35:54.969Z,2.93
2023-05-17T02:38:42.616Z,3.00
2023-05-17T02:41:30.039Z,2.77
2023-05-17T02:44:18.651Z,2.87
2023-05-17T02:47:06.216Z,2.27
2023-05-17T02:49:53.960Z,3.50
2023-05-17T02:52:42.716Z,3.03
2023-05-17T02:55:30.405Z,2.93
2023-05-17T02:58:18.345Z,2.90
2023-05-17T03:01:05.769Z,2.93
2023-05-17T03:03:53.217Z,3.13
2023-05-17T03:06:40.862Z,2.80
2023-05-17T03:09:30.879Z,3.30
2023-05-17T03:12:18.854Z,2.97
2023-05-17T03:15:08.041Z,2.80
2023-05-17T03:17:55.997Z,3.40
2023-05-17T03:20:45.221Z,3.23
2023-05-17T03:23:32.736Z,4.67
2023-05-17T03:26:24.165Z,3.23
2023-05-17T03:29:12.977Z,3.53
2023-05-17T03:32:02.849Z,3.77
2023-05-17T03:34:50.765Z,3.03
2023-05-17T03:37:38.108Z,2.93
2023-05-17T03:40:26.364Z,3.53
2023-05-17T03:43:15.706Z,3.37
2023-05-17T03:46:03.191Z,3.87
2023-05-17T03:48:51.170Z,3.43
2023-05-17T03:51:38.550Z,2.80
2023-05-17T03:54:26.522Z,3.40
2023-05-17T03:57:13.844Z,3.70
2023-05-17T04:00:05.636Z,3.07
2023-05-17T04:03:02.584Z,3.57
2023-05-17T04:05:50.839Z,3.63
2023-05-17T04:08:38.543Z,3.63
2023-05-17T04:11:27.237Z,3.63
2023-05-17T04:14:16.004Z,3.67
2023-05-17T04:17:05.233Z,3.77
2023-05-17T04:19:52.985Z,3.53
2023-05-17T04:22:40.728Z,3.50
2023-05-17T04:25:31.035Z,3.57
2023-05-17T04:28:19.756Z,4.17
2023-05-17T04:31:09.237Z,3.20
2023-05-17T04:33:58.225Z,4.43
2023-05-17T04:36:45.646Z,4.10
2023-05-17T04:39:33.377Z,3.60
2023-05-17T04:42:21.453Z,3.20
2023-05-17T04:45:15.486Z,3.37
2023-05-17T04:48:04.026Z,3.80
2023-05-17T04:50:54.353Z,3.77
2023-05-17T04:53:41.670Z,3.17
2023-05-17T04:56:34.828Z,3.63
2023-05-17T04:59:22.596Z,3.50
2023-05-17T05:02:11.631Z,3.50
2023-05-17T05:04:59.300Z,3.23
2023-05-17T05:07:48.451Z,3.57
2023-05-17T05:10:36.462Z,3.27
2023-05-17T05:13:24.748Z,3.03
2023-05-17T05:16:13.836Z,3.27
2023-05-17T05:19:01.300Z,2.63
2023-05-17T05:21:49.476Z,3.67
2023-05-17T05:24:38.943Z,3.10
2023-05-17T05:27:27.124Z,2.97
2023-05-17T05:30:21.913Z,3.50
2023-05-17T05:33:11.259Z,3.40
2023-05-17T05:35:59.168Z,2.60
2023-05-17T05:38:48.053Z,3.60
2023-05-17T05:41:37.840Z,3.40
2023-05-17T05:44:25.981Z,3.70
2023-05-17T05:47:16.332Z,3.17
2023-05-17T05:50:03.943Z,3.53
2023-05-17T05:52:54.677Z,3.80
2023-05-17T05:55:49.375Z,2.63
2023-05-17T05:58:38.382Z,3.40
2023-05-17T06:01:26.544Z,3.10
2023-05-17T06:04:14.103Z,2.90
2023-05-17T06:07:01.798Z,2.90
2023-05-17T06:09:49.114Z,2.53
2023-05-17T06:12:36.406Z,3.23
2023-05-17T06:15:25.240Z,2.65
2023-05-17T06:18:13.070Z,2.65
2023-05-17T06:21:01.650Z,2.53
2023-05-17T06:23:49.033Z,3.15
2023-05-17T06:26:36.607Z,2.30
2023-05-17T06:29:24.144Z,3.08
2023-05-17T06:32:12.921Z,2.33
2023-05-17T06:35:00.761Z,3.00
2023-05-17T06:37:48.570Z,2.47
2023-05-17T06:40:36.691Z,2.20
2023-05-17T06:43:24.904Z,2.40
2023-05-17T06:46:12.905Z,2.30
2023-05-17T06:49:02.225Z,2.87
2023-05-17T06:51:49.798Z,2.55
2023-05-17T06:54:37.174Z,2.10
2023-05-17T06:57:24.835Z,2.22
2023-05-17T07:00:13.014Z,1.95
2023-05-17T07:03:00.704Z,2.20
2023-05-17T07:05:49.280Z,2.25
2023-05-17T07:08:36.781Z,2.22
2023-05-17T07:11:24.064Z,2.60
2023-05-17T07:14:11.459Z,2.25
2023-05-17T07:16:58.753Z,2.25
2023-05-17T07:19:46.338Z,2.45
2023-05-17T07:22:35.368Z,2.70
2023-05-17T07:25:23.094Z,2.40
2023-05-17T07:28:11.199Z,1.92
2023-05-17T07:30:58.462Z,1.67
2023-05-17T07:33:46.174Z,2.10
2023-05-17T07:36:33.851Z,2.10
2023-05-17T07:39:25.344Z,2.30
2023-05-17T07:42:12.587Z,2.38
2023-05-17T07:45:00.189Z,1.75
2023-05-17T07:47:48.329Z,1.85
2023-05-17T07:50:36.091Z,1.80
2023-05-17T07:53:23.877Z,2.13
2023-05-17T07:56:12.608Z,1.85
2023-05-17T07:59:00.408Z,1.90
2023-05-17T08:01:47.928Z,2.08
2023-05-17T08:04:35.437Z,2.20
2023-05-17T08:07:22.991Z,2.03
2023-05-17T08:10:10.615Z,1.55
2023-05-17T08:12:59.352Z,1.98
2023-05-17T08:15:46.912Z,1.83
2023-05-17T08:18:34.458Z,1.92
2023-05-17T08:21:22.674Z,1.80
2023-05-17T08:24:10.374Z,2.28
2023-05-17T08:26:58.501Z,1.95
2023-05-17T08:29:47.360Z,1.38
2023-05-17T08:32:34.889Z,2.25
2023-05-17T08:35:23.108Z,1.60
2023-05-17T08:38:11.136Z,2.10
2023-05-17T08:40:59.832Z,2.10
2023-05-17T08:43:48.434Z,1.60
2023-05-17T08:46:38.520Z,1.48
2023-05-17T08:49:27.767Z,2.17
2023-05-17T08:52:16.003Z,2.05
2023-05-17T08:55:06.010Z,2.05
2023-05-17T08:57:54.353Z,2.10
2023-05-17T09:00:42.094Z,2.08
2023-05-17T09:03:32.257Z,2.00
2023-05-17T09:06:23.238Z,1.90
2023-05-17T09:09:11.660Z,1.98
2023-05-17T09:11:59.377Z,2.00
2023-05-17T09:14:47.164Z,1.67
2023-05-17T09:17:34.894Z,1.80
2023-05-17T09:20:34.402Z,1.77
2023-05-17T09:23:23.365Z,2.05
2023-05-17T09:26:10.832Z,2.35
2023-05-17T09:28:58.436Z,1.92
2023-05-17T09:31:46.463Z,2.00
2023-05-17T09:34:33.946Z,2.00
2023-05-17T09:37:22.713Z,2.00
2023-05-17T09:40:10.635Z,1.90
2023-05-17T09:42:58.260Z,1.80
2023-05-17T09:45:45.919Z,2.05
2023-05-17T09:48:33.865Z,1.65
2023-05-17T09:51:21.580Z,1.63
2023-05-17T09:54:11.078Z,1.88
2023-05-17T09:56:59.598Z,1.85
2023-05-17T09:59:47.599Z,1.30
2023-05-17T10:02:37.141Z,2.30
2023-05-17T10:05:25.046Z,1.92
2023-05-17T10:08:13.438Z,2.20
2023-05-17T10:11:05.222Z,1.50
2023-05-17T10:13:56.412Z,1.90
2023-05-17T10:16:44.255Z,1.83
2023-05-17T10:19:32.309Z,1.77
2023-05-17T10:22:23.327Z,1.23
2023-05-17T10:25:11.903Z,1.77
2023-05-17T10:28:01.395Z,1.60
2023-05-17T10:30:49.880Z,2.00
2023-05-17T10:33:37.792Z,2.15
2023-05-17T10:36:26.176Z,1.85
2023-05-17T10:39:13.900Z,1.90
2023-05-17T10:42:13.615Z,1.77
2023-05-17T10:45:04.199Z,1.48
2023-05-17T10:47:52.844Z,1.50
2023-05-17T10:50:45.031Z,1.75
2023-05-17T10:54:00.368Z,1.55
2023-05-17T10:56:52.082Z,2.30
2023-05-17T10:59:57.472Z,1.63
2023-05-17T11:02:48.616Z,1.77
2023-05-17T11:05:36.354Z,2.00
2023-05-17T11:08:23.848Z,1.83
2023-05-17T11:11:12.366Z,1.90
2023-05-17T11:14:04.642Z,1.95
2023-05-17T11:16:58.530Z,1.73
2023-05-17T11:20:03.407Z,1.70
2023-05-17T11:22:52.004Z,1.70
2023-05-17T11:25:40.613Z,2.28
2023-05-17T11:28:29.081Z,1.50
2023-05-17T11:31:16.945Z,1.65
2023-05-17T11:34:04.991Z,2.13
2023-05-17T11:36:54.855Z,1.80
2023-05-17T11:40:02.840Z,1.90
2023-05-17T11:42:52.039Z,1.73
2023-05-17T11:45:47.956Z,1.90
2023-05-17T11:48:36.967Z,1.77
2023-05-17T11:51:25.418Z,2.08
2023-05-17T11:54:15.423Z,1.63
2023-05-17T11:57:03.909Z,1.50
2023-05-17T11:59:51.911Z,2.10
2023-05-17T12:02:39.322Z,1.77
2023-05-17T12:05:27.573Z,2.10
2023-05-17T12:08:16.674Z,1.80
2023-05-17T12:11:06.702Z,1.63
2023-05-17T12:13:54.078Z,2.08
2023-05-17T12:16:43.267Z,1.92
2023-05-17T12:19:32.526Z,1.88
2023-05-17T12:22:20.485Z,1.30
2023-05-17T12:25:20.387Z,1.85
2023-05-17T12:28:22.327Z,1.55
2023-05-17T12:31:11.684Z,1.63
2023-05-17T12:33:59.618Z,1.50
2023-05-17T12:36:47.466Z,2.03
2023-05-17T12:39:34.980Z,1.98
2023-05-17T12:42:22.584Z,1.70
2023-05-17T12:45:13.702Z,1.67
2023-05-17T12:48:02.043Z,1.63
2023-05-17T12:50:51.424Z,1.67
2023-05-17T12:53:39.663Z,2.00
2023-05-17T12:56:29.300Z,1.73
2023-05-17T12:59:17.691Z,1.92
2023-05-17T13:02:06.982Z,1.92
2023-05-17T13:04:54.285Z,1.63
2023-05-17T13:07:41.488Z,1.65
2023-05-17T13:10:29.707Z,2.08
2023-05-17T13:13:20.355Z,2.00
2023-05-17T13:16:08.328Z,2.10
2023-05-17T13:18:57.149Z,1.90
2023-05-17T13:21:44.468Z,1.88
2023-05-17T13:24:33.009Z,1.65
2023-05-17T13:27:20.952Z,1.98
2023-05-17T13:30:09.384Z,1.77
2023-05-17T13:32:57.012Z,1.48
2023-05-17T13:35:46.433Z,1.70
2023-05-17T13:38:34.054Z,1.67
2023-05-17T13:41:21.470Z,1.75
2023-05-17T13:44:08.680Z,1.88
2023-05-17T13:46:55.958Z,1.60
2023-05-17T13:49:43.356Z,1.90
2023-05-17T13:52:32.191Z,1.67
2023-05-17T13:55:19.865Z,1.80
2023-05-17T13:58:07.516Z,1.83
2023-05-17T14:00:55.163Z,1.70
2023-05-17T14:03:43.108Z,2.05
2023-05-17T14:06:30.465Z,1.63
2023-05-17T14:09:20.311Z,1.98
2023-05-17T14:12:07.964Z,2.92
2023-05-17T14:14:55.280Z,1.98
2023-05-17T14:17:42.740Z,1.77
2023-05-17T14:20:30.627Z,2.17
2023-05-17T14:23:18.438Z,2.00
2023-05-17T14:26:07.677Z,1.40
2023-05-17T14:28:55.673Z,1.63
2023-05-17T14:31:43.382Z,2.33
2023-05-17T14:34:30.911Z,2.10
2023-05-17T14:37:18.578Z,2.05
2023-05-17T14:40:06.972Z,1.77
2023-05-17T14:42:56.939Z,2.80
2023-05-17T14:45:44.501Z,1.60
2023-05-17T14:48:32.985Z,1.90
2023-05-17T14:51:20.688Z,2.33
2023-05-17T14:54:08.398Z,1.80
2023-05-17T14:56:55.806Z,1.90
2023-05-17T14:59:45.400Z,1.88
2023-05-17T15:02:32.901Z,2.00
2023-05-17T15:05:20.360Z,2.08
2023-05-17T15:08:08.381Z,2.20
2023-05-17T15:10:55.767Z,1.92
2023-05-17T15:13:43.102Z,2.08
2023-05-17T15:16:31.857Z,1.60
2023-05-17T15:19:19.682Z,2.03
2023-05-17T15:22:07.829Z,1.95
2023-05-17T15:24:57.658Z,1.75
2023-05-17T15:27:45.523Z,2.00
2023-05-17T15:30:33.104Z,2.33
2023-05-17T15:33:22.184Z,1.80
2023-05-17T15:36:11.200Z,1.73
2023-05-17T15:38:59.557Z,1.80
2023-05-17T15:41:46.872Z,2.10
2023-05-17T15:44:34.312Z,1.67
2023-05-17T15:47:23.914Z,2.10
2023-05-17T15:50:17.392Z,1.98
2023-05-17T15:53:04.957Z,1.67
2023-05-17T15:55:52.181Z,1.80
2023-05-17T15:58:39.610Z,2.10
2023-05-17T16:01:27.002Z,2.00
2023-05-17T16:04:14.607Z,1.63
2023-05-17T16:07:03.549Z,1.90
2023-05-17T16:09:51.298Z,1.75
2023-05-17T16:12:38.620Z,1.80
2023-05-17T16:15:26.165Z,1.40
2023-05-17T16:18:15.077Z,2.33
2023-05-17T16:21:04.634Z,1.48
2023-05-17T16:23:53.655Z,1.67
2023-05-17T16:26:41.261Z,1.83
2023-05-17T16:29:28.605Z,1.80
2023-05-17T16:32:16.123Z,1.88
2023-05-17T16:35:03.822Z,2.05
2023-05-17T16:37:52.225Z,1.70
2023-05-17T16:40:41.552Z,1.58
2023-05-17T16:43:29.155Z,1.90
2023-05-17T16:46:18.957Z,1.40
2023-05-17T16:49:07.176Z,1.95
2023-05-17T16:51:54.511Z,1.75
2023-05-17T16:54:42.063Z,1.98
2023-05-17T16:57:31.522Z,2.00
2023-05-17T17:00:20.012Z,1.88
2023-05-17T17:03:09.485Z,1.40
2023-05-17T17:05:57.565Z,1.73
2023-05-17T17:08:44.995Z,1.98
2023-05-17T17:11:32.375Z,2.08
2023-05-17T17:14:21.169Z,1.98
2023-05-17T17:17:09.143Z,1.80
2023-05-17T17:19:57.391Z,2.13
2023-05-17T17:22:45.049Z,2.00
2023-05-17T17:25:32.404Z,1.95
2023-05-17T17:28:19.853Z,1.73
2023-05-17T17:31:08.504Z,1.67
2023-05-17T17:33:56.384Z,1.75
2023-05-17T17:36:44.088Z,1.75
2023-05-17T17:39:31.397Z,1.83
2023-05-17T17:42:18.853Z,3.13
2023-05-17T17:45:06.864Z,1.83
2023-05-17T17:47:55.795Z,2.45
2023-05-17T17:50:43.311Z,2.38
2023-05-17T17:53:30.738Z,2.47
2023-05-17T17:56:18.186Z,1.92
2023-05-17T17:59:06.460Z,1.55
2023-05-17T18:01:53.895Z,1.77
2023-05-17T18:04:43.289Z,1.45
2023-05-17T18:07:31.028Z,1.60
2023-05-17T18:10:18.608Z,1.70
2023-05-17T18:13:06.094Z,1.60
2023-05-17T18:15:53.649Z,1.90
2023-05-17T18:18:41.055Z,1.80
2023-05-17T18:21:30.219Z,1.60
2023-05-17T18:24:18.365Z,1.45
2023-05-17T18:27:06.222Z,1.60
2023-05-17T18:29:53.925Z,1.95
2023-05-17T18:32:41.367Z,1.85
2023-05-17T18:35:28.904Z,1.90
2023-05-17T18:38:17.663Z,1.88
2023-05-17T18:41:05.353Z,1.90
2023-05-17T18:43:52.617Z,2.17
2023-05-17T18:46:39.949Z,2.22
2023-05-17T18:49:27.434Z,1.67
2023-05-17T18:52:15.230Z,1.70
2023-05-17T18:55:04.026Z,1.63
2023-05-17T18:57:52.278Z,2.17
2023-05-17T19:00:39.757Z,1.60
2023-05-17T19:03:27.687Z,3.05
2023-05-17T19:06:15.322Z,3.83
2023-05-17T19:09:02.832Z,3.72
2023-05-17T19:11:51.705Z,3.30
2023-05-17T19:14:40.223Z,2.70
2023-05-17T19:17:27.583Z,2.97
2023-05-17T19:20:15.842Z,2.55
2023-05-17T19:23:03.610Z,3.25
2023-05-17T19:25:51.400Z,2.42
2023-05-17T19:28:40.380Z,2.35
2023-05-17T19:31:28.250Z,2.08
2023-05-17T19:34:15.929Z,1.80
2023-05-17T19:37:03.986Z,1.77
2023-05-17T19:39:51.327Z,1.88
2023-05-17T19:42:39.585Z,1.87
2023-05-17T19:45:28.948Z,1.85
2023-05-17T19:48:16.646Z,1.52
2023-05-17T19:51:04.019Z,1.67
2023-05-17T19:53:53.935Z,2.88
2023-05-17T19:56:41.723Z,2.10
2023-05-17T19:59:29.033Z,1.80
2023-05-17T20:02:18.037Z,1.73
2023-05-17T20:05:06.035Z,2.05
2023-05-17T20:07:53.632Z,2.60
2023-05-17T20:10:41.324Z,2.03
2023-05-17T20:13:29.640Z,2.00
2023-05-17T20:16:17.220Z,1.90
2023-05-17T20:19:06.124Z,2.00
2023-05-17T20:21:53.756Z,2.20
2023-05-17T20:24:42.526Z,2.15
2023-05-17T20:27:30.171Z,2.10
2023-05-17T20:30:17.617Z,1.95
2023-05-17T20:33:05.043Z,2.08
2023-05-17T20:35:53.809Z,1.98
2023-05-17T20:38:41.417Z,1.70
2023-05-17T20:41:29.053Z,2.25
2023-05-17T20:44:19.395Z,2.03
2023-05-17T20:47:08.950Z,1.90
2023-05-17T20:49:56.214Z,1.97
2023-05-17T20:52:44.927Z,1.70
2023-05-17T20:55:32.714Z,1.80
2023-05-17T20:58:20.146Z,2.50
2023-05-17T21:01:07.531Z,2.30
2023-05-17T21:03:58.060Z,2.17
2023-05-17T21:06:45.980Z,2.03
2023-05-17T21:09:34.771Z,1.90
2023-05-17T21:12:23.914Z,2.35
2023-05-17T21:18:19.650Z,2.20
2023-05-17T21:21:06.862Z,2.07
2023-05-17T21:23:54.360Z,1.70
2023-05-17T21:26:43.300Z,2.17
2023-05-17T21:29:30.956Z,2.60
2023-05-17T21:32:18.278Z,2.17
2023-05-17T21:35:05.977Z,2.50
2023-05-17T21:37:53.657Z,1.67
2023-05-17T21:40:41.050Z,1.87
2023-05-17T21:43:30.075Z,1.83
2023-05-17T21:46:17.709Z,1.80
2023-05-17T21:49:05.610Z,1.90
2023-05-17T21:51:52.852Z,2.10
2023-05-17T21:54:41.231Z,1.90
2023-05-17T21:57:28.856Z,2.07
2023-05-17T22:00:17.909Z,1.73
2023-05-17T22:03:05.841Z,1.90
2023-05-17T22:05:53.367Z,2.22
2023-05-17T22:08:42.293Z,1.73
2023-05-17T22:11:30.708Z,2.10
2023-05-17T22:14:18.185Z,2.27
2023-05-17T22:17:08.659Z,2.80
2023-05-17T22:19:56.247Z,1.70
2023-05-17T22:22:44.077Z,1.83
2023-05-17T22:25:31.686Z,1.83
2023-05-17T22:28:19.162Z,2.27
2023-05-17T22:31:07.494Z,2.00
2023-05-17T22:33:56.597Z,1.83
2023-05-17T22:36:44.133Z,1.80
2023-05-17T22:39:31.797Z,2.67
2023-05-17T22:42:19.681Z,1.90
2023-05-17T22:45:07.808Z,1.90
2023-05-17T22:47:57.202Z,2.07
2023-05-17T22:50:46.819Z,1.70
2023-05-17T22:53:34.444Z,1.93
2023-05-17T22:56:26.181Z,1.90
2023-05-17T22:59:13.851Z,1.87
2023-05-17T23:02:03.644Z,2.00
2023-05-17T23:04:51.219Z,1.70
2023-05-17T23:07:41.382Z,1.80
2023-05-17T23:10:29.594Z,1.80
2023-05-17T23:13:17.820Z,2.07
2023-05-17T23:16:06.071Z,2.53
2023-05-17T23:18:53.564Z,1.90
2023-05-17T23:21:41.231Z,1.87
2023-05-17T23:24:30.052Z,1.63
2023-05-17T23:27:18.436Z,1.70
2023-05-17T23:30:06.164Z,1.90
2023-05-17T23:32:55.280Z,1.90
2023-05-17T23:35:43.130Z,1.70
2023-05-17T23:38:30.745Z,1.30
2023-05-17T23:41:19.754Z,1.47
2023-05-17T23:44:07.865Z,1.87
2023-05-17T23:46:56.216Z,1.50
2023-05-17T23:49:43.832Z,2.10
2023-05-17T23:52:32.395Z,1.70
2023-05-17T23:55:22.248Z,1.87
2023-05-17T23:58:11.459Z,1.70
